Time;durP1;ratioP1;P1;durP2;ratioP2;P2;SDS_P1;SDS_P2;PMS_P1;PMS_P2;Temp;Humidity;BMP_temperature;BMP_pressure;BME280_temperature;BME280_humidity;BME280_pressure;Samples;Min_cycle;Max_cycle;Signal;HPM_P1;HPM_P2
2022/10/25 00:00:29;;;;;;;;;;;12.70;99.90;;;;;;4959856;28;19985;-76
2022/10/25 00:02:55;;;;;;;;;;;12.50;99.90;;;;;;4953917;28;20357;-76
2022/10/25 00:05:20;;;;;;;;;;;12.40;99.90;;;;;;4966954;28;19914;-76
2022/10/25 00:07:46;;;;;;;;;;;12.40;99.90;;;;;;4961899;28;19953;-76
2022/10/25 00:10:11;;;;;;;;;;;12.30;99.90;;;;;;4959533;28;19914;-76
2022/10/25 00:12:44;;;;;;;;;;;12.30;99.90;;;;;;4956594;28;19918;-76
2022/10/25 00:15:11;;;;;;;;;;;12.30;99.90;;;;;;4960710;28;19911;-76
2022/10/25 00:17:36;;;;;;;;;;;12.30;99.90;;;;;;4962242;28;19907;-76
2022/10/25 00:20:01;;;;;;;;;;;12.20;99.90;;;;;;4964994;28;19910;-76
2022/10/25 00:22:28;;;;;;;;;;;12.20;99.90;;;;;;4964949;28;19953;-76
2022/10/25 00:24:53;;;;;;;;;;;12.10;99.90;;;;;;4963312;28;19914;-76
2022/10/25 00:27:18;;;;;;;;;;;12.10;99.90;;;;;;4957237;28;19937;-76
2022/10/25 00:29:44;;;;;;;;;;;12.00;99.90;;;;;;4959116;28;20441;-76
2022/10/25 00:32:09;;;;;;;;;;;11.80;99.90;;;;;;4966431;28;19914;-76
2022/10/25 00:34:35;;;;;;;;;;;11.80;99.90;;;;;;4966160;28;20365;-76
2022/10/25 00:37:00;;;;;;;;;;;11.70;99.90;;;;;;4973897;28;19918;-76
2022/10/25 00:39:25;;;;;;;;;;;11.80;99.90;;;;;;4958358;28;19910;-76
2022/10/25 00:41:51;;;;;;;;;;;11.90;99.90;;;;;;4967028;28;19977;-76
2022/10/25 00:44:43;;;;;;;;;;;11.90;99.90;;;;;;4970188;28;20377;-76
2022/10/25 00:47:16;;;;;;;;;;;11.80;99.90;;;;;;4957750;28;19911;-76
2022/10/25 00:49:42;;;;;;;;;;;11.80;99.90;;;;;;4954692;28;19910;-76
2022/10/25 00:52:09;;;;;;;;;;;11.80;99.90;;;;;;4953306;28;19935;-76
2022/10/25 00:54:36;;;;;;;;;;;11.70;99.90;;;;;;4961279;28;19918;-76
2022/10/25 00:57:04;;;;;;;;;;;11.70;99.90;;;;;;4962784;28;19913;-76
2022/10/25 00:59:30;;;;;;;;;;;11.60;99.90;;;;;;4960325;28;20421;-76
2022/10/25 01:01:56;;;;;;;;;;;11.60;99.90;;;;;;4957484;28;19997;-76
2022/10/25 01:04:25;;;;;;;;;;;11.60;99.90;;;;;;4969753;28;19916;-76
2022/10/25 01:06:50;;;;;;;;;;;11.80;99.90;;;;;;4957105;28;19917;-77
2022/10/25 01:09:19;;;;;;;;;;;11.80;99.90;;;;;;4962250;28;19910;-76
2022/10/25 01:11:44;;;;;;;;;;;12.00;99.90;;;;;;4951329;28;20008;-76
2022/10/25 01:14:11;;;;;;;;;;;12.30;99.90;;;;;;4965378;28;20001;-76
2022/10/25 01:16:46;;;;;;;;;;;12.60;99.90;;;;;;4955506;28;19949;-76
2022/10/25 01:19:30;;;;;;;;;;;12.60;99.90;;;;;;4961606;28;19984;-76
2022/10/25 01:21:59;;;;;;;;;;;12.80;99.90;;;;;;4957903;28;19961;-76
2022/10/25 01:24:36;;;;;;;;;;;12.90;99.90;;;;;;4956609;28;19921;-76
2022/10/25 01:27:18;;;;;;;;;;;13.10;99.90;;;;;;4952799;28;20590;-76
2022/10/25 01:29:59;;;;;;;;;;;13.20;99.90;;;;;;4954966;28;20422;-76
2022/10/25 01:32:24;;;;;;;;;;;13.20;99.90;;;;;;4955539;28;20285;-76
2022/10/25 01:34:54;;;;;;;;;;;13.30;99.90;;;;;;4959082;28;19910;-76
2022/10/25 01:37:38;;;;;;;;;;;13.50;99.90;;;;;;4960835;28;19921;-76
2022/10/25 01:42:55;;;;;;;;;;;13.60;99.90;;;;;;4949623;28;20332;-77
2022/10/25 01:45:26;;;;;;;;;;;13.70;99.90;;;;;;4960101;28;19909;-76
2022/10/25 01:47:58;;;;;;;;;;;13.90;99.90;;;;;;4964595;28;19917;-76
2022/10/25 01:50:31;;;;;;;;;;;14.00;99.90;;;;;;4959908;28;19914;-77
2022/10/25 01:52:56;;;;;;;;;;;13.90;99.90;;;;;;4959853;28;20100;-76
2022/10/25 01:55:25;;;;;;;;;;;14.00;99.90;;;;;;4955243;28;20368;-78
2022/10/25 01:58:00;;;;;;;;;;;14.00;99.90;;;;;;4954790;28;19915;-76
2022/10/25 02:00:25;;;;;;;;;;;13.90;99.90;;;;;;4952277;28;19914;-79
2022/10/25 02:03:00;;;;;;;;;;;13.90;99.90;;;;;;4963349;28;19910;-76
2022/10/25 02:05:28;;;;;;;;;;;13.90;99.90;;;;;;4956913;28;19910;-76
2022/10/25 02:07:59;;;;;;;;;;;13.90;99.90;;;;;;4958602;28;19951;-76
2022/10/25 02:10:36;;;;;;;;;;;13.90;99.90;;;;;;4951544;28;19919;-76
2022/10/25 02:13:20;;;;;;;;;;;13.90;99.90;;;;;;4952858;28;19922;-76
2022/10/25 02:16:04;;;;;;;;;;;13.90;99.90;;;;;;4958518;28;20287;-76
2022/10/25 02:18:30;;;;;;;;;;;14.00;99.90;;;;;;4967376;28;19910;-76
2022/10/25 02:20:56;;;;;;;;;;;14.00;99.90;;;;;;4957126;28;19917;-77
2022/10/25 02:23:22;;;;;;;;;;;14.00;99.90;;;;;;4957715;28;20050;-77
2022/10/25 02:25:48;;;;;;;;;;;13.90;99.90;;;;;;4958310;28;19918;-77
2022/10/25 02:28:15;;;;;;;;;;;13.90;99.90;;;;;;4957991;28;19917;-76
2022/10/25 02:30:41;;;;;;;;;;;13.90;99.90;;;;;;4955226;28;19922;-77
2022/10/25 02:33:07;;;;;;;;;;;13.90;99.90;;;;;;4965980;28;20361;-77
2022/10/25 02:35:32;;;;;;;;;;;13.90;99.90;;;;;;4971547;28;19924;-77
2022/10/25 02:37:57;;;;;;;;;;;13.80;99.90;;;;;;4964536;28;19910;-77
2022/10/25 02:40:23;;;;;;;;;;;13.80;99.90;;;;;;4970211;28;19918;-77
2022/10/25 02:42:49;;;;;;;;;;;13.80;99.90;;;;;;4955831;28;19910;-77
2022/10/25 02:45:25;;;;;;;;;;;13.80;99.90;;;;;;4957678;28;19913;-77
2022/10/25 02:47:50;;;;;;;;;;;13.80;99.90;;;;;;4970314;28;19910;-80
2022/10/25 02:50:16;;;;;;;;;;;13.80;99.90;;;;;;4962503;28;19993;-76
2022/10/25 02:52:41;;;;;;;;;;;13.80;99.90;;;;;;4965284;28;19997;-76
2022/10/25 02:55:07;;;;;;;;;;;13.80;99.90;;;;;;4973985;28;19910;-77
2022/10/25 02:57:33;;;;;;;;;;;13.80;99.90;;;;;;4962670;28;19922;-77
2022/10/25 02:59:58;;;;;;;;;;;13.90;99.90;;;;;;4971847;28;20042;-77
2022/10/25 03:02:24;;;;;;;;;;;14.00;99.90;;;;;;4956147;28;20696;-76
2022/10/25 03:04:49;;;;;;;;;;;13.80;99.90;;;;;;4963401;28;20366;-77
2022/10/25 03:07:15;;;;;;;;;;;13.80;99.90;;;;;;4963926;28;19910;-77
2022/10/25 03:09:40;;;;;;;;;;;13.70;99.90;;;;;;4963352;28;19918;-77
2022/10/25 03:12:06;;;;;;;;;;;13.70;99.90;;;;;;4962850;28;20928;-76
2022/10/25 03:14:31;;;;;;;;;;;13.70;99.90;;;;;;4962314;28;19961;-78
2022/10/25 03:16:56;;;;;;;;;;;13.70;99.90;;;;;;4952168;28;19906;-76
2022/10/25 03:19:22;;;;;;;;;;;13.80;99.90;;;;;;4957853;28;20301;-77
2022/10/25 03:21:47;;;;;;;;;;;13.80;99.90;;;;;;4962471;28;19949;-76
2022/10/25 03:24:13;;;;;;;;;;;13.80;99.90;;;;;;4975300;28;20004;-76
2022/10/25 03:26:38;;;;;;;;;;;13.70;99.90;;;;;;4970989;28;20643;-77
2022/10/25 03:29:04;;;;;;;;;;;13.80;99.90;;;;;;4965171;28;20284;-77
2022/10/25 03:31:29;;;;;;;;;;;13.80;99.90;;;;;;4958324;28;19925;-76
2022/10/25 03:33:54;;;;;;;;;;;13.90;99.90;;;;;;4961008;28;20333;-77
2022/10/25 03:36:20;;;;;;;;;;;13.90;99.90;;;;;;4959909;28;19914;-77
2022/10/25 03:38:45;;;;;;;;;;;13.90;99.90;;;;;;4957349;28;19911;-76
2022/10/25 03:41:20;;;;;;;;;;;14.00;99.90;;;;;;4953590;28;19918;-73
2022/10/25 03:43:46;;;;;;;;;;;14.00;99.90;;;;;;4958403;28;19921;-76
2022/10/25 03:46:11;;;;;;;;;;;14.00;99.90;;;;;;4961394;28;19964;-76
2022/10/25 03:48:37;;;;;;;;;;;14.00;99.90;;;;;;4950991;28;20799;-77
2022/10/25 03:51:02;;;;;;;;;;;13.90;99.90;;;;;;4958059;28;20340;-78
2022/10/25 03:53:31;;;;;;;;;;;13.90;99.90;;;;;;4962721;28;19929;-79
2022/10/25 03:55:56;;;;;;;;;;;14.00;99.90;;;;;;4962388;28;19973;-79
2022/10/25 03:58:21;;;;;;;;;;;14.00;99.90;;;;;;4962496;28;20373;-77
2022/10/25 04:00:47;;;;;;;;;;;14.00;99.90;;;;;;4963939;28;19917;-78
2022/10/25 04:03:12;;;;;;;;;;;14.00;99.90;;;;;;4962878;28;19929;-80
2022/10/25 04:05:38;;;;;;;;;;;14.00;99.90;;;;;;4963861;28;19929;-77
2022/10/25 04:08:03;;;;;;;;;;;14.00;99.90;;;;;;4963943;28;19973;-77
2022/10/25 04:10:29;;;;;;;;;;;14.00;99.90;;;;;;4966062;28;19910;-77
2022/10/25 04:12:54;;;;;;;;;;;14.00;99.90;;;;;;4957970;28;19918;-77
2022/10/25 04:15:20;;;;;;;;;;;14.10;99.90;;;;;;4960121;28;19914;-78
2022/10/25 04:17:49;;;;;;;;;;;14.10;99.90;;;;;;4964195;28;20335;-78
2022/10/25 04:20:15;;;;;;;;;;;14.10;99.90;;;;;;4966137;28;19914;-77
2022/10/25 04:22:40;;;;;;;;;;;14.00;99.90;;;;;;4962677;28;20569;-78
2022/10/25 04:25:06;;;;;;;;;;;14.10;99.90;;;;;;4965632;28;19910;-77
2022/10/25 04:27:31;;;;;;;;;;;14.00;99.90;;;;;;4966935;28;19906;-77
2022/10/25 04:29:59;;;;;;;;;;;14.00;99.90;;;;;;4958999;28;19922;-77
2022/10/25 04:32:24;;;;;;;;;;;14.10;99.90;;;;;;4959849;28;19918;-77
2022/10/25 04:34:50;;;;;;;;;;;14.00;99.90;;;;;;4956531;28;20346;-80
2022/10/25 04:37:15;;;;;;;;;;;14.10;99.90;;;;;;4955976;28;19906;-78
2022/10/25 04:39:40;;;;;;;;;;;14.10;99.90;;;;;;4960009;28;20469;-78
2022/10/25 04:42:06;;;;;;;;;;;14.10;99.90;;;;;;4957297;28;19931;-77
2022/10/25 04:44:31;;;;;;;;;;;14.00;99.90;;;;;;4954878;28;19982;-76
2022/10/25 04:46:57;;;;;;;;;;;14.00;99.90;;;;;;4951658;28;19949;-78
2022/10/25 04:49:22;;;;;;;;;;;13.90;99.90;;;;;;4963976;28;20383;-78
2022/10/25 04:51:47;;;;;;;;;;;13.90;99.90;;;;;;4960988;28;20001;-77
2022/10/25 04:54:13;;;;;;;;;;;13.90;99.90;;;;;;4965896;28;19910;-77
2022/10/25 04:56:38;;;;;;;;;;;13.90;99.90;;;;;;4963930;28;20004;-77
2022/10/25 04:59:04;;;;;;;;;;;13.90;99.90;;;;;;4964304;28;19913;-76
2022/10/25 05:01:29;;;;;;;;;;;13.90;99.90;;;;;;4966240;28;19945;-77
2022/10/25 05:03:54;;;;;;;;;;;13.90;99.90;;;;;;4964929;28;19949;-78
2022/10/25 05:06:21;;;;;;;;;;;13.80;99.90;;;;;;4961815;28;19918;-77
2022/10/25 05:08:48;;;;;;;;;;;13.70;99.90;;;;;;4963775;28;19914;-79
2022/10/25 05:11:14;;;;;;;;;;;13.60;99.90;;;;;;4962654;28;19914;-77
2022/10/25 05:13:40;;;;;;;;;;;13.50;99.90;;;;;;4965383;28;19918;-77
2022/10/25 05:16:06;;;;;;;;;;;13.40;99.90;;;;;;4964923;28;20103;-77
2022/10/25 05:18:32;;;;;;;;;;;13.30;99.90;;;;;;4966256;28;19918;-77
2022/10/25 05:20:59;;;;;;;;;;;13.30;99.90;;;;;;4964028;28;20261;-76
2022/10/25 05:23:25;;;;;;;;;;;13.30;99.90;;;;;;4961789;28;19910;-77
2022/10/25 05:26:04;;;;;;;;;;;13.20;99.90;;;;;;4962481;28;19910;-77
2022/10/25 05:28:30;;;;;;;;;;;13.10;99.90;;;;;;4963270;28;19988;-78
2022/10/25 05:30:56;;;;;;;;;;;13.00;99.90;;;;;;4962435;28;20016;-77
2022/10/25 05:33:21;;;;;;;;;;;13.10;99.90;;;;;;4955454;28;20292;-77
2022/10/25 05:35:47;;;;;;;;;;;13.20;99.90;;;;;;4964805;28;19956;-77
2022/10/25 05:38:12;;;;;;;;;;;13.20;99.90;;;;;;4957848;28;20368;-77
2022/10/25 05:40:37;;;;;;;;;;;13.30;99.90;;;;;;4959464;28;19916;-79
2022/10/25 05:43:03;;;;;;;;;;;13.50;99.90;;;;;;4963699;28;19909;-77
2022/10/25 05:45:28;;;;;;;;;;;13.50;99.90;;;;;;4963173;28;19916;-77
2022/10/25 05:47:54;;;;;;;;;;;13.50;99.90;;;;;;4959753;28;19914;-77
2022/10/25 05:50:19;;;;;;;;;;;13.70;99.90;;;;;;4957699;28;19924;-77
2022/10/25 05:52:44;;;;;;;;;;;13.70;99.90;;;;;;4960601;28;19914;-77
2022/10/25 05:55:10;;;;;;;;;;;13.70;99.90;;;;;;4960476;28;20369;-79
2022/10/25 05:57:35;;;;;;;;;;;13.70;99.90;;;;;;4959776;28;19995;-77
2022/10/25 06:00:01;;;;;;;;;;;13.80;99.90;;;;;;4959971;28;19968;-77
2022/10/25 06:02:26;;;;;;;;;;;13.90;99.90;;;;;;4958720;28;20276;-78
2022/10/25 06:04:52;;;;;;;;;;;14.00;99.90;;;;;;4967979;28;19927;-78
2022/10/25 06:07:17;;;;;;;;;;;14.00;99.90;;;;;;4962834;28;19922;-82
2022/10/25 06:09:43;;;;;;;;;;;13.90;99.90;;;;;;4966366;28;19968;-75
2022/10/25 06:12:08;;;;;;;;;;;14.00;99.90;;;;;;4960639;28;20266;-77
2022/10/25 06:14:33;;;;;;;;;;;13.90;99.90;;;;;;4955310;28;19913;-79
2022/10/25 06:16:59;;;;;;;;;;;13.90;99.90;;;;;;4967932;28;19917;-77
2022/10/25 06:19:24;;;;;;;;;;;14.00;99.90;;;;;;4968484;28;19948;-78
2022/10/25 06:21:52;;;;;;;;;;;14.10;99.90;;;;;;4965259;28;19931;-80
2022/10/25 06:24:17;;;;;;;;;;;14.00;99.90;;;;;;4963644;28;19921;-77
2022/10/25 06:26:43;;;;;;;;;;;14.00;99.90;;;;;;4968752;28;19946;-77
2022/10/25 06:29:08;;;;;;;;;;;14.10;99.90;;;;;;4967375;28;20246;-77
2022/10/25 06:31:34;;;;;;;;;;;14.10;99.90;;;;;;4964722;28;20029;-78
2022/10/25 06:34:00;;;;;;;;;;;14.10;99.90;;;;;;4966009;28;19945;-77
2022/10/25 06:36:27;;;;;;;;;;;14.10;99.90;;;;;;4965295;28;19922;-77
2022/10/25 06:38:52;;;;;;;;;;;14.20;99.90;;;;;;4965824;28;19910;-77
2022/10/25 06:41:19;;;;;;;;;;;14.20;99.90;;;;;;4960707;28;19941;-80
2022/10/25 06:43:45;;;;;;;;;;;14.20;99.90;;;;;;4959488;28;20624;-77
2022/10/25 06:46:18;;;;;;;;;;;14.20;99.90;;;;;;4954274;28;19910;-78
2022/10/25 06:48:43;;;;;;;;;;;14.20;99.90;;;;;;4955256;28;20013;-75
2022/10/25 06:51:09;;;;;;;;;;;14.20;99.90;;;;;;4954958;28;20460;-74
2022/10/25 06:53:35;;;;;;;;;;;14.40;99.90;;;;;;4954275;28;20369;-76
2022/10/25 06:56:01;;;;;;;;;;;14.30;99.90;;;;;;4954177;28;19918;-77
2022/10/25 06:58:28;;;;;;;;;;;14.40;99.90;;;;;;4949882;28;20503;-76
2022/10/25 07:00:53;;;;;;;;;;;14.40;99.90;;;;;;4959370;28;20510;-76
2022/10/25 07:03:20;;;;;;;;;;;14.40;99.90;;;;;;4957889;28;20001;-76
2022/10/25 07:05:45;;;;;;;;;;;14.40;99.90;;;;;;4957067;28;19910;-76
2022/10/25 07:08:10;;;;;;;;;;;14.50;99.90;;;;;;4957555;28;19932;-76
2022/10/25 07:10:36;;;;;;;;;;;14.50;99.90;;;;;;4951588;28;20284;-74
2022/10/25 07:13:01;;;;;;;;;;;14.50;99.90;;;;;;4957902;28;19918;-73
2022/10/25 07:15:27;;;;;;;;;;;14.50;99.90;;;;;;4962542;28;19930;-74
2022/10/25 07:17:53;;;;;;;;;;;14.60;99.90;;;;;;4956894;28;19910;-73
2022/10/25 07:20:18;;;;;;;;;;;14.60;99.90;;;;;;4951949;28;19918;-84
2022/10/25 07:22:45;;;;;;;;;;;14.60;99.90;;;;;;4950621;28;19920;-77
2022/10/25 07:25:10;;;;;;;;;;;14.70;99.90;;;;;;4961467;28;19991;-78
2022/10/25 07:27:36;;;;;;;;;;;14.80;99.90;;;;;;4953078;28;19917;-77
2022/10/25 07:30:01;;;;;;;;;;;14.80;99.90;;;;;;4952001;28;20082;-77
2022/10/25 07:32:26;;;;;;;;;;;14.80;99.90;;;;;;4957328;28;20065;-77
2022/10/25 07:34:52;;;;;;;;;;;14.80;99.90;;;;;;4961158;28;19910;-76
2022/10/25 07:37:17;;;;;;;;;;;14.80;99.90;;;;;;4966711;28;20971;-76
2022/10/25 07:39:42;;;;;;;;;;;14.80;99.90;;;;;;4950456;28;20345;-77
2022/10/25 07:42:08;;;;;;;;;;;14.50;99.90;;;;;;4960865;28;19917;-77
2022/10/25 07:44:33;;;;;;;;;;;14.40;99.90;;;;;;4968657;28;19918;-77
2022/10/25 07:46:59;;;;;;;;;;;14.20;99.90;;;;;;4955825;28;20824;-76
2022/10/25 07:49:24;;;;;;;;;;;14.00;99.90;;;;;;4961564;28;19949;-75
2022/10/25 07:51:50;;;;;;;;;;;13.80;99.90;;;;;;4949842;28;19914;-74
2022/10/25 07:54:15;;;;;;;;;;;13.90;99.90;;;;;;4964943;28;19918;-75
2022/10/25 07:56:40;;;;;;;;;;;14.00;99.90;;;;;;4980735;28;19917;-75
2022/10/25 07:59:06;;;;;;;;;;;13.90;99.90;;;;;;4963536;28;19910;-75
2022/10/25 08:01:31;;;;;;;;;;;13.90;99.90;;;;;;4956524;28;22047;-76
2022/10/25 08:03:57;;;;;;;;;;;13.90;99.90;;;;;;4960002;28;19989;-73
2022/10/25 08:06:23;;;;;;;;;;;14.00;99.90;;;;;;4956110;28;19992;-73
2022/10/25 08:08:48;;;;;;;;;;;14.00;99.90;;;;;;4957868;28;19910;-74
2022/10/25 08:11:14;;;;;;;;;;;14.00;99.90;;;;;;4952189;28;19989;-73
2022/10/25 08:13:39;;;;;;;;;;;13.90;99.90;;;;;;4960781;28;20316;-74
2022/10/25 08:16:05;;;;;;;;;;;14.00;99.90;;;;;;4964816;28;19910;-74
2022/10/25 08:18:31;;;;;;;;;;;14.20;99.90;;;;;;4974786;28;19964;-81
2022/10/25 08:20:56;;;;;;;;;;;14.40;99.90;;;;;;4974220;28;19917;-80
2022/10/25 08:23:24;;;;;;;;;;;14.30;99.90;;;;;;4962372;28;19914;-74
2022/10/25 08:25:49;;;;;;;;;;;14.50;99.90;;;;;;4956795;28;19910;-71
2022/10/25 08:28:14;;;;;;;;;;;14.30;99.90;;;;;;4958599;28;20442;-74
2022/10/25 08:30:40;;;;;;;;;;;14.30;99.90;;;;;;4974591;28;19917;-74
2022/10/25 08:33:06;;;;;;;;;;;14.20;99.90;;;;;;4957973;28;20032;-74
2022/10/25 08:35:31;;;;;;;;;;;14.30;99.90;;;;;;4965882;28;20437;-74
2022/10/25 08:38:00;;;;;;;;;;;14.40;99.90;;;;;;4976771;28;19917;-75
2022/10/25 08:40:45;;;;;;;;;;;14.30;99.90;;;;;;4965794;28;19909;-74
2022/10/25 08:43:29;;;;;;;;;;;14.30;99.90;;;;;;4980048;28;19910;-75
2022/10/25 08:45:57;;;;;;;;;;;14.50;99.90;;;;;;4962474;28;19917;-74
2022/10/25 08:48:27;;;;;;;;;;;14.70;99.90;;;;;;4972803;28;19913;-76
2022/10/25 08:50:55;;;;;;;;;;;14.90;99.90;;;;;;4965417;28;19914;-76
2022/10/25 08:53:26;;;;;;;;;;;15.20;99.90;;;;;;4965439;28;19926;-75
2022/10/25 08:55:53;;;;;;;;;;;15.40;99.90;;;;;;4967668;28;19914;-75
2022/10/25 08:58:27;;;;;;;;;;;15.50;99.90;;;;;;4964539;28;19918;-75
2022/10/25 09:00:52;;;;;;;;;;;15.80;99.90;;;;;;4968857;28;20568;-75
2022/10/25 09:03:24;;;;;;;;;;;16.10;99.90;;;;;;4978837;28;19910;-74
2022/10/25 09:06:08;;;;;;;;;;;16.00;99.90;;;;;;4961549;28;19914;-74
2022/10/25 09:08:41;;;;;;;;;;;15.40;99.90;;;;;;4964705;28;20292;-74
2022/10/25 09:11:19;;;;;;;;;;;15.20;99.90;;;;;;4957696;28;19922;-75
2022/10/25 09:13:51;;;;;;;;;;;15.50;99.90;;;;;;4972368;28;19913;-75
2022/10/25 09:16:28;;;;;;;;;;;15.40;99.90;;;;;;4959123;28;19910;-77
2022/10/25 09:18:55;;;;;;;;;;;15.60;99.90;;;;;;4968398;28;19924;-75
2022/10/25 09:24:56;;;;;;;;;;;15.60;99.90;;;;;;4958938;28;19993;-75
2022/10/25 09:27:35;;;;;;;;;;;15.70;99.90;;;;;;4964675;28;19917;-76
2022/10/25 09:30:06;;;;;;;;;;;15.60;99.90;;;;;;4966818;28;20477;-75
2022/10/25 09:32:44;;;;;;;;;;;15.80;99.90;;;;;;4976419;28;19914;-75
2022/10/25 09:35:19;;;;;;;;;;;16.10;99.90;;;;;;4988976;28;19906;-75
2022/10/25 09:37:47;;;;;;;;;;;16.30;99.90;;;;;;4982220;28;20426;-75
2022/10/25 09:40:21;;;;;;;;;;;16.10;99.90;;;;;;4988551;28;20032;-76
2022/10/25 09:42:48;;;;;;;;;;;16.30;99.90;;;;;;4989000;28;19913;-75
2022/10/25 09:45:23;;;;;;;;;;;16.50;99.90;;;;;;4984663;28;19913;-76
2022/10/25 09:47:55;;;;;;;;;;;16.50;99.90;;;;;;4970149;28;20285;-74
2022/10/25 09:50:24;;;;;;;;;;;16.30;99.90;;;;;;4988977;28;19906;-74
2022/10/25 09:52:56;;;;;;;;;;;16.10;99.90;;;;;;4988643;28;19923;-74
2022/10/25 09:55:38;;;;;;;;;;;16.00;99.90;;;;;;4976954;28;19917;-74
2022/10/25 09:58:04;;;;;;;;;;;16.00;99.90;;;;;;4971371;28;19921;-74
2022/10/25 10:00:38;;;;;;;;;;;16.10;99.90;;;;;;4971505;28;20281;-75
2022/10/25 10:03:04;;;;;;;;;;;16.20;99.90;;;;;;4985979;28;20032;-75
2022/10/25 10:05:30;;;;;;;;;;;16.10;99.90;;;;;;4975267;28;19996;-75
2022/10/25 10:07:55;;;;;;;;;;;16.10;99.90;;;;;;4970820;28;19917;-74
2022/10/25 10:10:26;;;;;;;;;;;16.20;99.90;;;;;;4981496;28;19906;-74
2022/10/25 10:13:00;;;;;;;;;;;16.10;99.90;;;;;;4988359;28;19917;-74
2022/10/25 10:15:35;;;;;;;;;;;16.00;99.90;;;;;;4988607;28;19913;-75
2022/10/25 10:18:20;;;;;;;;;;;16.30;99.90;;;;;;4971966;28;19933;-75
2022/10/25 10:20:54;;;;;;;;;;;16.40;99.90;;;;;;4979700;28;19910;-75
2022/10/25 10:23:20;;;;;;;;;;;16.30;99.90;;;;;;4988624;28;19906;-74
2022/10/25 10:25:45;;;;;;;;;;;16.10;99.90;;;;;;4988311;28;20364;-74
2022/10/25 10:28:12;;;;;;;;;;;15.90;99.90;;;;;;4981196;28;19909;-75
2022/10/25 10:30:38;;;;;;;;;;;15.90;99.90;;;;;;4987976;28;19918;-75
2022/10/25 10:33:08;;;;;;;;;;;16.00;99.90;;;;;;4988764;28;19952;-74
2022/10/25 10:35:34;;;;;;;;;;;16.10;99.90;;;;;;4988515;28;20543;-76
2022/10/25 10:38:19;;;;;;;;;;;16.50;99.90;;;;;;4969735;28;19910;-74
2022/10/25 10:40:44;;;;;;;;;;;16.90;99.90;;;;;;4977200;28;19906;-74
2022/10/25 10:43:23;;;;;;;;;;;17.10;99.90;;;;;;4988643;28;20548;-75
2022/10/25 10:45:49;;;;;;;;;;;16.50;99.90;;;;;;4988426;28;19948;-74
2022/10/25 10:48:19;;;;;;;;;;;15.90;99.90;;;;;;4974787;28;19917;-75
2022/10/25 10:50:48;;;;;;;;;;;15.60;99.90;;;;;;4990762;28;19992;-74
2022/10/25 10:53:21;;;;;;;;;;;15.60;99.90;;;;;;4988559;28;19910;-74
2022/10/25 10:55:48;;;;;;;;;;;15.50;99.90;;;;;;4982742;28;19979;-75
2022/10/25 10:58:18;;;;;;;;;;;15.50;99.90;;;;;;4992478;28;19964;-75
2022/10/25 11:00:54;;;;;;;;;;;15.60;99.90;;;;;;4978593;28;19909;-74
2022/10/25 11:03:36;;;;;;;;;;;15.90;99.90;;;;;;4992228;28;20360;-74
2022/10/25 11:06:03;;;;;;;;;;;16.20;99.90;;;;;;4964887;28;19910;-74
2022/10/25 11:08:29;;;;;;;;;;;16.50;99.90;;;;;;4983339;28;19988;-75
2022/10/25 11:11:11;;;;;;;;;;;16.70;99.90;;;;;;4979494;28;19914;-74
2022/10/25 11:13:36;;;;;;;;;;;17.00;99.90;;;;;;4991244;28;19910;-74
2022/10/25 11:16:10;;;;;;;;;;;17.40;99.90;;;;;;4982992;28;20005;-74
2022/10/25 11:18:40;;;;;;;;;;;18.20;99.90;;;;;;4991686;28;19906;-75
2022/10/25 11:21:15;;;;;;;;;;;19.80;99.90;;;;;;4991843;28;19913;-74
2022/10/25 11:24:01;;;;;;;;;;;20.90;99.90;;;;;;4991378;28;19910;-74
2022/10/25 11:26:44;;;;;;;;;;;19.70;99.90;;;;;;4968902;28;20273;-74
2022/10/25 11:29:17;;;;;;;;;;;18.80;99.90;;;;;;4991036;28;19913;-75
2022/10/25 11:31:54;;;;;;;;;;;18.20;99.90;;;;;;4991206;28;20280;-74
2022/10/25 11:34:28;;;;;;;;;;;17.90;99.90;;;;;;4991745;28;20001;-75
2022/10/25 11:37:11;;;;;;;;;;;17.70;99.90;;;;;;4984825;28;19914;-75
2022/10/25 11:39:55;;;;;;;;;;;18.20;99.90;;;;;;4990675;28;20468;-76
2022/10/25 11:42:23;;;;;;;;;;;18.70;99.90;;;;;;4984492;28;20022;-75
2022/10/25 11:44:56;;;;;;;;;;;18.40;99.90;;;;;;4991413;28;19909;-74
2022/10/25 11:47:23;;;;;;;;;;;18.30;99.90;;;;;;4979887;28;19910;-75
2022/10/25 11:49:54;;;;;;;;;;;19.40;99.90;;;;;;4986838;28;19953;-75
2022/10/25 11:52:29;;;;;;;;;;;25.20;80.80;;;;;;4990826;28;20009;-74
2022/10/25 11:55:00;;;;;;;;;;;26.00;70.20;;;;;;4990843;28;20321;-75
2022/10/25 11:57:25;;;;;;;;;;;24.60;72.80;;;;;;4986770;28;20380;-75
2022/10/25 11:59:58;;;;;;;;;;;27.00;66.10;;;;;;4968209;28;19910;-76
2022/10/25 12:02:33;;;;;;;;;;;24.60;69.00;;;;;;4983707;28;19980;-75
2022/10/25 12:05:09;;;;;;;;;;;22.40;79.50;;;;;;4990683;28;19910;-74
2022/10/25 12:07:43;;;;;;;;;;;22.60;78.60;;;;;;4976421;28;19920;-75
2022/10/25 12:10:23;;;;;;;;;;;21.40;83.00;;;;;;4986697;28;20353;-75
2022/10/25 12:12:51;;;;;;;;;;;23.40;76.00;;;;;;4968376;28;20400;-74
2022/10/25 12:15:26;;;;;;;;;;;21.50;81.80;;;;;;4984384;28;20478;-75
2022/10/25 12:17:51;;;;;;;;;;;20.20;88.40;;;;;;4960383;28;20385;-76
2022/10/25 12:20:24;;;;;;;;;;;19.20;92.60;;;;;;4985352;28;19906;-76
2022/10/25 12:22:52;;;;;;;;;;;18.50;95.80;;;;;;4971865;28;19918;-76
2022/10/25 12:25:27;;;;;;;;;;;18.20;97.80;;;;;;4985068;28;19909;-77
2022/10/25 12:27:59;;;;;;;;;;;17.80;99.90;;;;;;4981698;28;20379;-76
2022/10/25 12:30:24;;;;;;;;;;;17.70;99.90;;;;;;4962532;28;20008;-76
2022/10/25 12:32:51;;;;;;;;;;;17.30;99.90;;;;;;4990045;28;20005;-76
2022/10/25 12:35:25;;;;;;;;;;;17.30;99.90;;;;;;4959921;28;19910;-76
2022/10/25 12:37:53;;;;;;;;;;;16.40;99.90;;;;;;4979133;28;20326;-75
2022/10/25 12:40:20;;;;;;;;;;;17.10;99.90;;;;;;4969408;28;20041;-78
2022/10/25 12:42:54;;;;;;;;;;;20.50;99.90;;;;;;4984713;28;19925;-84
2022/10/25 12:45:40;;;;;;;;;;;20.80;99.90;;;;;;4990208;28;20423;-84
2022/10/25 12:48:13;;;;;;;;;;;23.20;95.80;;;;;;4979205;28;19910;-77
2022/10/25 12:50:57;;;;;;;;;;;20.80;96.00;;;;;;4990232;28;19906;-81
2022/10/25 12:53:47;;;;;;;;;;;23.90;84.10;;;;;;4981425;28;20289;-83
2022/10/25 12:56:19;;;;;;;;;;;23.90;77.60;;;;;;4984469;28;19910;-79
2022/10/25 12:58:51;;;;;;;;;;;24.30;71.80;;;;;;4951816;28;20048;-78
2022/10/25 13:01:19;;;;;;;;;;;24.30;71.80;;;;;;4973218;28;20044;-75
2022/10/25 13:03:50;;;;;;;;;;;24.20;71.00;;;;;;4961158;28;20502;-78
2022/10/25 13:06:26;;;;;;;;;;;21.40;80.10;;;;;;4963720;28;19917;-78
2022/10/25 13:08:54;;;;;;;;;;;20.10;87.50;;;;;;4959439;28;19913;-80
2022/10/25 13:11:30;;;;;;;;;;;18.50;93.70;;;;;;4983921;28;20196;-77
2022/10/25 13:13:55;;;;;;;;;;;17.90;98.20;;;;;;4975998;28;20001;-80
2022/10/25 13:16:23;;;;;;;;;;;17.70;99.90;;;;;;4990035;28;19996;-75
2022/10/25 13:19:08;;;;;;;;;;;17.70;99.90;;;;;;4964759;28;19913;-77
2022/10/25 13:21:52;;;;;;;;;;;17.50;99.90;;;;;;4952105;28;19973;-79
2022/10/25 13:24:35;;;;;;;;;;;17.20;99.90;;;;;;4958724;28;19957;-79
2022/10/25 13:27:15;;;;;;;;;;;16.80;99.90;;;;;;4969037;28;19914;-81
2022/10/25 13:30:01;;;;;;;;;;;16.10;99.90;;;;;;4975605;28;19922;-80
2022/10/25 13:32:28;;;;;;;;;;;15.50;99.90;;;;;;4968363;28;20001;-79
2022/10/25 13:34:57;;;;;;;;;;;15.50;99.90;;;;;;4956381;28;19922;-77
2022/10/25 13:37:32;;;;;;;;;;;15.60;99.90;;;;;;4966540;28;19992;-79
2022/10/25 13:39:58;;;;;;;;;;;16.00;99.90;;;;;;4962374;28;19910;-77
2022/10/25 13:42:36;;;;;;;;;;;16.50;99.90;;;;;;4975494;28;19925;-79
2022/10/25 13:45:02;;;;;;;;;;;16.70;99.90;;;;;;4975344;28;20112;-82
2022/10/25 13:47:38;;;;;;;;;;;16.50;99.90;;;;;;4957758;28;20525;-79
2022/10/25 13:50:16;;;;;;;;;;;16.60;99.90;;;;;;4976237;28;19953;-80
2022/10/25 13:52:50;;;;;;;;;;;17.10;99.90;;;;;;4976564;28;19971;-79
2022/10/25 13:55:19;;;;;;;;;;;17.50;99.90;;;;;;4969359;28;20055;-81
2022/10/25 13:57:44;;;;;;;;;;;17.70;99.90;;;;;;4975056;28;19917;-79
2022/10/25 14:00:25;;;;;;;;;;;18.10;99.90;;;;;;4968705;28;19914;-79
2022/10/25 14:03:20;;;;;;;;;;;17.60;99.90;;;;;;4978953;28;20411;-78
2022/10/25 14:05:54;;;;;;;;;;;17.50;99.90;;;;;;4963299;28;19967;-80
2022/10/25 14:08:21;;;;;;;;;;;18.50;99.90;;;;;;4970154;28;20529;-79
2022/10/25 14:10:47;;;;;;;;;;;17.70;99.90;;;;;;4957722;28;19911;-80
2022/10/25 14:13:17;;;;;;;;;;;17.40;99.90;;;;;;4978712;28;19913;-80
2022/10/25 14:15:47;;;;;;;;;;;17.10;99.90;;;;;;4972962;28;20430;-80
2022/10/25 14:18:18;;;;;;;;;;;16.70;99.90;;;;;;4989285;28;19913;-79
2022/10/25 14:20:45;;;;;;;;;;;16.60;99.90;;;;;;4963863;28;19913;-81
2022/10/25 14:23:16;;;;;;;;;;;16.50;99.90;;;;;;4980082;28;19929;-79
2022/10/25 14:25:47;;;;;;;;;;;16.80;99.90;;;;;;4963588;28;19945;-79
2022/10/25 14:28:13;;;;;;;;;;;16.30;99.90;;;;;;4979344;28;19924;-84
2022/10/25 14:30:41;;;;;;;;;;;16.50;99.90;;;;;;4965593;28;19918;-78
2022/10/25 14:33:18;;;;;;;;;;;16.50;99.90;;;;;;4966841;28;19930;-75